KEWR

Newark Liberty International Airport

Airport
ICAO code
KEWR
IATA Code
EWR
Summary
ICAO Region
NAM
ICAO Territory
Location

Newark, New Jersey,

Serving
Newark
Elevation
18 ft
Coordinates
40° 41' 24" N , 74° 10' 42" W
KCC
Airport LOS
Parallel Runway Operation
Airport RE
Engineered Materials Arresting System
Metar
Observation
KEWR 252051Z 22007KT 10SM FEW030 BKN060 BKN130 BKN200 BKN250 21/13 A2963 RMK AO2 LTG DSNT SE RAB1953E31 SLP033 6//// T02110133 58019 PNO $
Station
Newark, Newark International Airport
Date/Time
2022-09-25 20:51:00
Wind direction
220°
Wind speed
07 kts
Lowest cloud amount
few clouds
Temperature
21.1°C
Dew point
13.3°C
Humidity
61%
Weather condition
n/a

Description

Newark Liberty International Airport (IATA: EWR), first named Newark Airport and later Newark International Airport, is an international airport within the city limits of both Newark and Elizabeth, New Jersey, United States (although it is entirely owned by the city of Newark). It is about 24 km southwest of Midtown Manhattan (New York City).

Climatology

Humid “subtropical” climate (Köppen climate classification Cfa) - characterized by hot, humid summers and cool winters. Significant amounts of precipitation occur in all seasons in most areas. Winter rainfall (and sometimes snowfall) is associated with large storms that the westerlies steer from west to east. Most summer rainfall occurs during thunderstorms.

Airport map

Aerial View

SKYbrary Partners:

Safety knowledge contributed by: